sensor_id;sensor_type;location;lat;lon;timestamp;P1;durP1;ratioP1;P2;durP2;ratioP2
17504;SDS011;8870;50.950;11.762;2023-06-22T00:00:54;2.70;;;2.50;;
17504;SDS011;8870;50.950;11.762;2023-06-22T00:06:22;2.60;;;2.40;;
17504;SDS011;8870;50.950;11.762;2023-06-22T00:11:41;2.90;;;2.30;;
17504;SDS011;8870;50.950;11.762;2023-06-22T00:17:12;2.53;;;2.30;;
17504;SDS011;8870;50.950;11.762;2023-06-22T00:22:33;2.75;;;2.45;;
17504;SDS011;8870;50.950;11.762;2023-06-22T00:28:04;2.70;;;2.40;;
17504;SDS011;8870;50.950;11.762;2023-06-22T00:33:24;2.33;;;2.10;;
17504;SDS011;8870;50.950;11.762;2023-06-22T00:38:57;2.40;;;2.20;;
17504;SDS011;8870;50.950;11.762;2023-06-22T00:44:22;2.80;;;2.60;;
17504;SDS011;8870;50.950;11.762;2023-06-22T00:49:53;2.58;;;2.38;;
17504;SDS011;8870;50.950;11.762;2023-06-22T00:55:14;2.72;;;2.50;;
17504;SDS011;8870;50.950;11.762;2023-06-22T01:00:48;2.80;;;2.60;;
17504;SDS011;8870;50.950;11.762;2023-06-22T01:06:07;2.75;;;2.55;;
17504;SDS011;8870;50.950;11.762;2023-06-22T01:11:45;2.40;;;2.20;;
17504;SDS011;8870;50.950;11.762;2023-06-22T01:17:06;2.60;;;2.38;;
17504;SDS011;8870;50.950;11.762;2023-06-22T01:22:42;3.55;;;2.50;;
17504;SDS011;8870;50.950;11.762;2023-06-22T01:28:17;3.72;;;2.20;;
17504;SDS011;8870;50.950;11.762;2023-06-22T01:33:58;2.95;;;2.47;;
17504;SDS011;8870;50.950;11.762;2023-06-22T01:39:19;2.60;;;2.30;;
17504;SDS011;8870;50.950;11.762;2023-06-22T01:44:52;3.50;;;2.47;;
17504;SDS011;8870;50.950;11.762;2023-06-22T01:50:14;3.00;;;2.40;;
17504;SDS011;8870;50.950;11.762;2023-06-22T01:55:45;3.75;;;2.88;;
17504;SDS011;8870;50.950;11.762;2023-06-22T02:01:06;3.78;;;3.13;;
17504;SDS011;8870;50.950;11.762;2023-06-22T02:06:43;5.75;;;3.20;;
17504;SDS011;8870;50.950;11.762;2023-06-22T02:12:06;3.90;;;2.90;;
17504;SDS011;8870;50.950;11.762;2023-06-22T02:17:41;3.65;;;3.20;;
17504;SDS011;8870;50.950;11.762;2023-06-22T02:23:04;4.15;;;3.08;;
17504;SDS011;8870;50.950;11.762;2023-06-22T02:28:36;4.68;;;3.20;;
17504;SDS011;8870;50.950;11.762;2023-06-22T02:33:55;3.60;;;3.20;;
17504;SDS011;8870;50.950;11.762;2023-06-22T02:39:29;4.10;;;3.15;;
17504;SDS011;8870;50.950;11.762;2023-06-22T02:44:55;4.80;;;3.20;;
17504;SDS011;8870;50.950;11.762;2023-06-22T02:50:26;5.28;;;3.20;;
17504;SDS011;8870;50.950;11.762;2023-06-22T02:55:47;5.00;;;3.25;;
17504;SDS011;8870;50.950;11.762;2023-06-22T03:01:19;5.65;;;3.22;;
17504;SDS011;8870;50.950;11.762;2023-06-22T03:06:39;5.57;;;3.15;;
17504;SDS011;8870;50.950;11.762;2023-06-22T03:12:16;3.58;;;3.20;;
17504;SDS011;8870;50.950;11.762;2023-06-22T03:17:43;7.30;;;3.45;;
17504;SDS011;8870;50.950;11.762;2023-06-22T03:23:14;5.07;;;3.70;;
17504;SDS011;8870;50.950;11.762;2023-06-22T03:28:34;7.07;;;3.90;;
17504;SDS011;8870;50.950;11.762;2023-06-22T03:34:06;4.78;;;4.38;;
17504;SDS011;8870;50.950;11.762;2023-06-22T03:39:26;7.00;;;4.30;;
17504;SDS011;8870;50.950;11.762;2023-06-22T03:45:00;5.22;;;4.72;;
17504;SDS011;8870;50.950;11.762;2023-06-22T03:50:32;6.97;;;4.88;;
17504;SDS011;8870;50.950;11.762;2023-06-22T03:55:50;5.13;;;3.85;;
17504;SDS011;8870;50.950;11.762;2023-06-22T04:01:25;3.70;;;3.20;;
17504;SDS011;8870;50.950;11.762;2023-06-22T04:06:44;6.07;;;3.50;;
17504;SDS011;8870;50.950;11.762;2023-06-22T04:12:15;5.15;;;3.00;;
17504;SDS011;8870;50.950;11.762;2023-06-22T04:17:35;5.05;;;3.53;;
17504;SDS011;8870;50.950;11.762;2023-06-22T04:23:07;6.05;;;3.33;;
17504;SDS011;8870;50.950;11.762;2023-06-22T04:28:25;5.07;;;3.40;;
17504;SDS011;8870;50.950;11.762;2023-06-22T04:34:00;4.10;;;3.30;;
17504;SDS011;8870;50.950;11.762;2023-06-22T04:39:21;5.60;;;3.80;;
17504;SDS011;8870;50.950;11.762;2023-06-22T04:44:53;4.30;;;3.45;;
17504;SDS011;8870;50.950;11.762;2023-06-22T04:50:26;7.10;;;4.00;;
17504;SDS011;8870;50.950;11.762;2023-06-22T04:55:45;4.70;;;3.97;;
17504;SDS011;8870;50.950;11.762;2023-06-22T05:01:16;5.28;;;3.78;;
17504;SDS011;8870;50.950;11.762;2023-06-22T05:06:36;4.47;;;4.00;;
17504;SDS011;8870;50.950;11.762;2023-06-22T05:12:08;3.92;;;3.63;;
17504;SDS011;8870;50.950;11.762;2023-06-22T05:17:27;6.55;;;3.90;;
17504;SDS011;8870;50.950;11.762;2023-06-22T05:23:05;5.20;;;4.07;;
17504;SDS011;8870;50.950;11.762;2023-06-22T05:28:25;6.45;;;3.95;;
17504;SDS011;8870;50.950;11.762;2023-06-22T05:33:56;4.75;;;3.83;;
17504;SDS011;8870;50.950;11.762;2023-06-22T05:39:18;5.60;;;3.60;;
17504;SDS011;8870;50.950;11.762;2023-06-22T05:44:50;4.38;;;3.90;;
17504;SDS011;8870;50.950;11.762;2023-06-22T05:50:21;4.85;;;4.05;;
17504;SDS011;8870;50.950;11.762;2023-06-22T05:55:42;4.63;;;3.65;;
17504;SDS011;8870;50.950;11.762;2023-06-22T06:01:14;5.63;;;3.50;;
17504;SDS011;8870;50.950;11.762;2023-06-22T06:06:33;3.70;;;3.20;;
17504;SDS011;8870;50.950;11.762;2023-06-22T06:12:07;3.38;;;3.08;;
17504;SDS011;8870;50.950;11.762;2023-06-22T06:17:26;3.85;;;3.35;;
17504;SDS011;8870;50.950;11.762;2023-06-22T06:22:57;4.88;;;3.22;;
17504;SDS011;8870;50.950;11.762;2023-06-22T06:28:17;3.25;;;2.92;;
17504;SDS011;8870;50.950;11.762;2023-06-22T06:33:49;5.88;;;2.90;;
17504;SDS011;8870;50.950;11.762;2023-06-22T06:39:09;4.22;;;2.60;;
17504;SDS011;8870;50.950;11.762;2023-06-22T06:44:51;3.50;;;2.20;;
17504;SDS011;8870;50.950;11.762;2023-06-22T06:50:28;2.75;;;2.33;;
17504;SDS011;8870;50.950;11.762;2023-06-22T06:55:51;6.45;;;2.25;;
17504;SDS011;8870;50.950;11.762;2023-06-22T07:01:28;3.00;;;2.13;;
17504;SDS011;8870;50.950;11.762;2023-06-22T07:06:48;4.95;;;1.70;;
17504;SDS011;8870;50.950;11.762;2023-06-22T07:12:19;1.60;;;1.50;;
17504;SDS011;8870;50.950;11.762;2023-06-22T07:17:39;2.17;;;1.70;;
17504;SDS011;8870;50.950;11.762;2023-06-22T07:23:11;2.17;;;1.98;;
17504;SDS011;8870;50.950;11.762;2023-06-22T07:28:29;2.58;;;2.08;;
17504;SDS011;8870;50.950;11.762;2023-06-22T07:34:04;5.53;;;1.98;;
17504;SDS011;8870;50.950;11.762;2023-06-22T07:39:23;4.15;;;2.00;;
17504;SDS011;8870;50.950;11.762;2023-06-22T07:44:54;4.15;;;1.80;;
17504;SDS011;8870;50.950;11.762;2023-06-22T07:50:27;2.13;;;1.90;;
17504;SDS011;8870;50.950;11.762;2023-06-22T07:55:50;1.77;;;1.60;;
17504;SDS011;8870;50.950;11.762;2023-06-22T08:01:21;3.78;;;1.90;;
17504;SDS011;8870;50.950;11.762;2023-06-22T08:06:52;2.20;;;1.50;;
17504;SDS011;8870;50.950;11.762;2023-06-22T08:23:16;2.60;;;1.40;;
17504;SDS011;8870;50.950;11.762;2023-06-22T08:28:35;2.70;;;1.30;;
17504;SDS011;8870;50.950;11.762;2023-06-22T08:34:06;3.45;;;1.40;;
17504;SDS011;8870;50.950;11.762;2023-06-22T08:39:28;2.80;;;1.58;;
17504;SDS011;8870;50.950;11.762;2023-06-22T08:45:01;2.45;;;1.50;;
17504;SDS011;8870;50.950;11.762;2023-06-22T08:50:34;2.72;;;1.40;;
17504;SDS011;8870;50.950;11.762;2023-06-22T08:56:07;2.97;;;1.30;;
17504;SDS011;8870;50.950;11.762;2023-06-22T09:01:26;2.60;;;1.30;;
17504;SDS011;8870;50.950;11.762;2023-06-22T09:06:58;1.73;;;1.40;;
17504;SDS011;8870;50.950;11.762;2023-06-22T09:12:20;2.15;;;1.40;;
17504;SDS011;8870;50.950;11.762;2023-06-22T09:17:52;2.60;;;1.55;;
17504;SDS011;8870;50.950;11.762;2023-06-22T09:23:12;1.40;;;1.20;;
17504;SDS011;8870;50.950;11.762;2023-06-22T09:28:45;4.47;;;1.50;;
17504;SDS011;8870;50.950;11.762;2023-06-22T09:34:04;2.95;;;1.40;;
17504;SDS011;8870;50.950;11.762;2023-06-22T09:39:35;1.48;;;1.38;;
17504;SDS011;8870;50.950;11.762;2023-06-22T09:44:56;1.95;;;1.33;;
17504;SDS011;8870;50.950;11.762;2023-06-22T09:50:28;2.25;;;1.30;;
17504;SDS011;8870;50.950;11.762;2023-06-22T09:55:59;2.10;;;1.40;;
17504;SDS011;8870;50.950;11.762;2023-06-22T10:01:20;2.05;;;1.27;;
17504;SDS011;8870;50.950;11.762;2023-06-22T10:06:38;4.20;;;1.20;;
17504;SDS011;8870;50.950;11.762;2023-06-22T10:12:10;2.75;;;1.30;;
17504;SDS011;8870;50.950;11.762;2023-06-22T10:17:30;3.60;;;1.50;;
17504;SDS011;8870;50.950;11.762;2023-06-22T10:23:02;3.10;;;1.20;;
17504;SDS011;8870;50.950;11.762;2023-06-22T10:28:21;2.60;;;1.40;;
17504;SDS011;8870;50.950;11.762;2023-06-22T10:33:55;4.50;;;1.60;;
17504;SDS011;8870;50.950;11.762;2023-06-22T10:39:14;4.15;;;1.48;;
17504;SDS011;8870;50.950;11.762;2023-06-22T10:44:45;3.28;;;1.40;;
17504;SDS011;8870;50.950;11.762;2023-06-22T10:50:13;3.83;;;1.42;;
17504;SDS011;8870;50.950;11.762;2023-06-22T10:55:45;2.75;;;1.20;;
17504;SDS011;8870;50.950;11.762;2023-06-22T11:01:05;4.38;;;1.50;;
17504;SDS011;8870;50.950;11.762;2023-06-22T11:06:53;1.70;;;1.35;;
17504;SDS011;8870;50.950;11.762;2023-06-22T11:12:11;2.50;;;1.42;;
17504;SDS011;8870;50.950;11.762;2023-06-22T11:17:42;4.03;;;1.70;;
17504;SDS011;8870;50.950;11.762;2023-06-22T11:23:03;2.38;;;1.50;;
17504;SDS011;8870;50.950;11.762;2023-06-22T11:28:34;3.30;;;1.40;;
17504;SDS011;8870;50.950;11.762;2023-06-22T11:33:52;3.92;;;1.50;;
17504;SDS011;8870;50.950;11.762;2023-06-22T11:39:26;2.10;;;1.38;;
17504;SDS011;8870;50.950;11.762;2023-06-22T11:44:50;2.30;;;1.48;;
17504;SDS011;8870;50.950;11.762;2023-06-22T11:50:23;2.20;;;1.30;;
17504;SDS011;8870;50.950;11.762;2023-06-22T11:56:00;3.03;;;1.40;;
17504;SDS011;8870;50.950;11.762;2023-06-22T12:01:18;1.88;;;1.30;;
17504;SDS011;8870;50.950;11.762;2023-06-22T12:06:49;3.47;;;1.40;;
17504;SDS011;8870;50.950;11.762;2023-06-22T12:12:10;4.72;;;1.20;;
17504;SDS011;8870;50.950;11.762;2023-06-22T12:17:41;3.17;;;1.20;;
17504;SDS011;8870;50.950;11.762;2023-06-22T12:22:59;4.43;;;1.15;;
17504;SDS011;8870;50.950;11.762;2023-06-22T12:28:33;3.55;;;1.40;;
17504;SDS011;8870;50.950;11.762;2023-06-22T12:33:52;6.75;;;1.33;;
17504;SDS011;8870;50.950;11.762;2023-06-22T12:39:23;5.97;;;1.20;;
17504;SDS011;8870;50.950;11.762;2023-06-22T12:44:44;10.05;;;1.48;;
17504;SDS011;8870;50.950;11.762;2023-06-22T12:50:15;2.83;;;1.20;;
17504;SDS011;8870;50.950;11.762;2023-06-22T12:55:33;2.65;;;1.30;;
17504;SDS011;8870;50.950;11.762;2023-06-22T13:01:08;2.50;;;1.20;;
17504;SDS011;8870;50.950;11.762;2023-06-22T13:06:26;2.10;;;1.17;;
17504;SDS011;8870;50.950;11.762;2023-06-22T13:11:59;1.75;;;1.20;;
17504;SDS011;8870;50.950;11.762;2023-06-22T13:17:20;1.20;;;1.10;;
17504;SDS011;8870;50.950;11.762;2023-06-22T13:22:52;5.45;;;1.20;;
17504;SDS011;8870;50.950;11.762;2023-06-22T13:28:11;2.63;;;1.23;;
17504;SDS011;8870;50.950;11.762;2023-06-22T13:33:46;2.97;;;1.45;;
17504;SDS011;8870;50.950;11.762;2023-06-22T13:39:06;2.63;;;1.30;;
17504;SDS011;8870;50.950;11.762;2023-06-22T13:44:37;2.42;;;1.30;;
17504;SDS011;8870;50.950;11.762;2023-06-22T13:49:58;1.75;;;1.20;;
17504;SDS011;8870;50.950;11.762;2023-06-22T13:55:29;2.83;;;1.30;;
17504;SDS011;8870;50.950;11.762;2023-06-22T14:00:47;2.13;;;1.20;;
17504;SDS011;8870;50.950;11.762;2023-06-22T14:06:21;4.32;;;1.40;;
17504;SDS011;8870;50.950;11.762;2023-06-22T14:11:39;3.15;;;1.25;;
17504;SDS011;8870;50.950;11.762;2023-06-22T14:17:10;4.28;;;1.50;;
17504;SDS011;8870;50.950;11.762;2023-06-22T14:22:32;3.80;;;1.20;;
17504;SDS011;8870;50.950;11.762;2023-06-22T14:28:04;2.92;;;1.40;;
17504;SDS011;8870;50.950;11.762;2023-06-22T14:33:22;5.20;;;1.30;;
17504;SDS011;8870;50.950;11.762;2023-06-22T14:38:57;2.92;;;1.20;;
17504;SDS011;8870;50.950;11.762;2023-06-22T14:44:15;3.75;;;1.40;;
17504;SDS011;8870;50.950;11.762;2023-06-22T14:49:46;7.47;;;1.40;;
17504;SDS011;8870;50.950;11.762;2023-06-22T14:55:08;3.33;;;1.33;;
17504;SDS011;8870;50.950;11.762;2023-06-22T15:00:39;2.45;;;1.10;;
17504;SDS011;8870;50.950;11.762;2023-06-22T15:05:57;3.92;;;1.20;;
17504;SDS011;8870;50.950;11.762;2023-06-22T15:11:32;3.03;;;1.20;;
17504;SDS011;8870;50.950;11.762;2023-06-22T15:16:50;2.25;;;1.27;;
17504;SDS011;8870;50.950;11.762;2023-06-22T15:22:21;4.68;;;1.20;;
17504;SDS011;8870;50.950;11.762;2023-06-22T15:27:42;5.15;;;1.30;;
17504;SDS011;8870;50.950;11.762;2023-06-22T15:33:13;3.40;;;1.35;;
17504;SDS011;8870;50.950;11.762;2023-06-22T15:38:31;8.27;;;1.38;;
17504;SDS011;8870;50.950;11.762;2023-06-22T15:44:06;2.28;;;1.17;;
17504;SDS011;8870;50.950;11.762;2023-06-22T15:49:24;1.77;;;1.02;;
17504;SDS011;8870;50.950;11.762;2023-06-22T15:54:56;4.70;;;1.30;;
17504;SDS011;8870;50.950;11.762;2023-06-22T16:00:21;4.18;;;1.38;;
17504;SDS011;8870;50.950;11.762;2023-06-22T16:05:52;5.32;;;1.40;;
17504;SDS011;8870;50.950;11.762;2023-06-22T16:11:10;4.57;;;1.38;;
17504;SDS011;8870;50.950;11.762;2023-06-22T16:16:45;2.45;;;1.40;;
17504;SDS011;8870;50.950;11.762;2023-06-22T16:22:04;4.53;;;1.40;;
17504;SDS011;8870;50.950;11.762;2023-06-22T16:27:35;3.10;;;1.55;;
17504;SDS011;8870;50.950;11.762;2023-06-22T16:32:56;4.35;;;1.50;;
17504;SDS011;8870;50.950;11.762;2023-06-22T16:38:28;3.30;;;1.50;;
17504;SDS011;8870;50.950;11.762;2023-06-22T16:43:48;3.60;;;1.45;;
17504;SDS011;8870;50.950;11.762;2023-06-22T16:49:27;2.92;;;1.40;;
17504;SDS011;8870;50.950;11.762;2023-06-22T16:54:45;4.78;;;1.38;;
17504;SDS011;8870;50.950;11.762;2023-06-22T17:00:21;7.60;;;1.50;;
17504;SDS011;8870;50.950;11.762;2023-06-22T17:05:43;2.50;;;1.40;;
17504;SDS011;8870;50.950;11.762;2023-06-22T17:11:15;1.95;;;1.40;;
17504;SDS011;8870;50.950;11.762;2023-06-22T17:16:33;4.80;;;1.50;;
17504;SDS011;8870;50.950;11.762;2023-06-22T17:22:04;4.65;;;1.80;;
17504;SDS011;8870;50.950;11.762;2023-06-22T17:27:29;4.57;;;1.90;;
17504;SDS011;8870;50.950;11.762;2023-06-22T17:32:50;3.45;;;1.55;;
17504;SDS011;8870;50.950;11.762;2023-06-22T17:38:24;3.70;;;1.60;;
17504;SDS011;8870;50.950;11.762;2023-06-22T17:43:44;4.00;;;1.65;;
17504;SDS011;8870;50.950;11.762;2023-06-22T17:49:21;2.22;;;1.50;;
17504;SDS011;8870;50.950;11.762;2023-06-22T17:54:46;3.55;;;1.65;;
17504;SDS011;8870;50.950;11.762;2023-06-22T18:00:25;6.95;;;1.58;;
17504;SDS011;8870;50.950;11.762;2023-06-22T18:05:45;5.03;;;1.50;;
17504;SDS011;8870;50.950;11.762;2023-06-22T18:11:20;3.47;;;1.60;;
17504;SDS011;8870;50.950;11.762;2023-06-22T18:16:43;2.78;;;1.70;;
17504;SDS011;8870;50.950;11.762;2023-06-22T18:22:18;3.42;;;1.48;;
17504;SDS011;8870;50.950;11.762;2023-06-22T18:27:40;3.35;;;1.70;;
17504;SDS011;8870;50.950;11.762;2023-06-22T18:33:12;2.58;;;1.40;;
17504;SDS011;8870;50.950;11.762;2023-06-22T18:38:30;2.95;;;1.60;;
17504;SDS011;8870;50.950;11.762;2023-06-22T18:44:11;4.45;;;1.73;;
17504;SDS011;8870;50.950;11.762;2023-06-22T18:55:35;5.82;;;1.67;;
17504;SDS011;8870;50.950;11.762;2023-06-22T19:00:56;6.00;;;1.70;;
17504;SDS011;8870;50.950;11.762;2023-06-22T19:06:55;3.03;;;1.73;;
17504;SDS011;8870;50.950;11.762;2023-06-22T19:12:17;4.78;;;1.80;;
17504;SDS011;8870;50.950;11.762;2023-06-22T19:17:53;3.40;;;1.67;;
17504;SDS011;8870;50.950;11.762;2023-06-22T19:23:24;3.08;;;1.75;;
17504;SDS011;8870;50.950;11.762;2023-06-22T19:28:59;3.53;;;1.90;;
17504;SDS011;8870;50.950;11.762;2023-06-22T19:34:20;3.60;;;1.92;;
17504;SDS011;8870;50.950;11.762;2023-06-22T19:39:53;6.18;;;1.95;;
17504;SDS011;8870;50.950;11.762;2023-06-22T19:45:20;2.00;;;1.60;;
17504;SDS011;8870;50.950;11.762;2023-06-22T19:50:54;2.67;;;1.70;;
17504;SDS011;8870;50.950;11.762;2023-06-22T19:56:18;4.72;;;1.80;;
17504;SDS011;8870;50.950;11.762;2023-06-22T20:01:43;2.08;;;1.50;;
17504;SDS011;8870;50.950;11.762;2023-06-22T20:07:11;2.90;;;1.65;;
17504;SDS011;8870;50.950;11.762;2023-06-22T20:12:32;3.97;;;1.92;;
17504;SDS011;8870;50.950;11.762;2023-06-22T20:18:04;3.10;;;1.60;;
17504;SDS011;8870;50.950;11.762;2023-06-22T20:23:26;7.20;;;1.77;;
17504;SDS011;8870;50.950;11.762;2023-06-22T20:28:58;5.07;;;1.70;;
17504;SDS011;8870;50.950;11.762;2023-06-22T20:34:19;4.80;;;1.80;;
17504;SDS011;8870;50.950;11.762;2023-06-22T20:39:53;4.45;;;1.60;;
17504;SDS011;8870;50.950;11.762;2023-06-22T20:45:12;6.13;;;1.70;;
17504;SDS011;8870;50.950;11.762;2023-06-22T20:50:42;4.88;;;1.70;;
17504;SDS011;8870;50.950;11.762;2023-06-22T20:56:03;15.57;;;2.00;;
17504;SDS011;8870;50.950;11.762;2023-06-22T21:01:34;8.73;;;2.67;;
17504;SDS011;8870;50.950;11.762;2023-06-22T21:06:53;12.70;;;3.20;;
17504;SDS011;8870;50.950;11.762;2023-06-22T21:12:27;6.63;;;2.45;;
17504;SDS011;8870;50.950;11.762;2023-06-22T21:17:48;5.45;;;2.22;;
17504;SDS011;8870;50.950;11.762;2023-06-22T21:23:18;4.03;;;1.73;;
17504;SDS011;8870;50.950;11.762;2023-06-22T21:28:39;5.57;;;2.03;;
17504;SDS011;8870;50.950;11.762;2023-06-22T21:34:10;6.72;;;2.40;;
17504;SDS011;8870;50.950;11.762;2023-06-22T21:39:29;6.13;;;2.38;;
17504;SDS011;8870;50.950;11.762;2023-06-22T21:45:02;5.75;;;2.42;;
17504;SDS011;8870;50.950;11.762;2023-06-22T21:50:21;5.05;;;2.55;;
17504;SDS011;8870;50.950;11.762;2023-06-22T21:55:51;8.40;;;2.28;;
17504;SDS011;8870;50.950;11.762;2023-06-22T22:01:12;11.07;;;2.15;;
17504;SDS011;8870;50.950;11.762;2023-06-22T22:06:43;4.97;;;2.10;;
17504;SDS011;8870;50.950;11.762;2023-06-22T22:12:06;6.13;;;2.15;;
17504;SDS011;8870;50.950;11.762;2023-06-22T22:17:40;5.97;;;2.05;;
17504;SDS011;8870;50.950;11.762;2023-06-22T22:22:59;6.32;;;1.92;;
17504;SDS011;8870;50.950;11.762;2023-06-22T22:28:31;3.75;;;1.90;;
17504;SDS011;8870;50.950;11.762;2023-06-22T22:33:52;8.10;;;2.20;;
17504;SDS011;8870;50.950;11.762;2023-06-22T22:39:30;6.03;;;2.10;;
17504;SDS011;8870;50.950;11.762;2023-06-22T22:44:56;5.05;;;2.10;;
17504;SDS011;8870;50.950;11.762;2023-06-22T23:15:21;5.60;;;2.92;;
17504;SDS011;8870;50.950;11.762;2023-06-22T23:20:52;7.97;;;3.10;;
17504;SDS011;8870;50.950;11.762;2023-06-22T23:26:10;7.63;;;2.70;;
17504;SDS011;8870;50.950;11.762;2023-06-22T23:31:45;4.45;;;2.55;;
17504;SDS011;8870;50.950;11.762;2023-06-22T23:37:03;4.50;;;2.40;;
17504;SDS011;8870;50.950;11.762;2023-06-22T23:42:36;4.90;;;2.78;;
17504;SDS011;8870;50.950;11.762;2023-06-22T23:47:57;6.03;;;2.55;;
17504;SDS011;8870;50.950;11.762;2023-06-22T23:53:30;4.45;;;2.53;;
17504;SDS011;8870;50.950;11.762;2023-06-22T23:58:50;6.15;;;2.28;;
